createdAt,value
2019-06-07T00:01:44.617Z,12.50
2019-06-07T00:04:13.483Z,12.60
2019-06-07T00:06:39.510Z,12.50
2019-06-07T00:09:08.189Z,12.60
2019-06-07T00:11:34.423Z,12.60
2019-06-07T00:14:02.386Z,12.50
2019-06-07T00:16:28.615Z,12.40
2019-06-07T00:18:55.190Z,12.40
2019-06-07T00:22:11.391Z,12.30
2019-06-07T00:23:49.658Z,12.30
2019-06-07T00:26:19.166Z,12.30
2019-06-07T00:28:44.242Z,12.30
2019-06-07T00:31:11.545Z,12.30
2019-06-07T00:33:38.689Z,12.30
2019-06-07T00:36:05.342Z,12.20
2019-06-07T00:38:31.956Z,12.10
2019-06-07T00:40:58.186Z,12.00
2019-06-07T00:43:28.134Z,12.00
2019-06-07T00:45:52.464Z,11.90
2019-06-07T00:48:27.477Z,11.90
2019-06-07T00:50:47.205Z,11.90
2019-06-07T00:53:17.678Z,12.00
2019-06-07T00:55:42.225Z,12.10
2019-06-07T00:58:08.846Z,12.10
2019-06-07T01:00:35.523Z,12.10
2019-06-07T01:03:02.555Z,12.10
2019-06-07T01:05:31.452Z,12.20
2019-06-07T01:07:57.365Z,12.40
2019-06-07T01:10:51.604Z,12.50
2019-06-07T01:12:52.698Z,12.60
2019-06-07T01:15:28.551Z,12.60
2019-06-07T01:18:32.970Z,12.70
2019-06-07T01:20:23.813Z,12.70
2019-06-07T01:22:49.285Z,12.50
2019-06-07T01:25:15.901Z,12.40
2019-06-07T01:27:42.393Z,12.40
2019-06-07T01:30:14.469Z,12.40
2019-06-07T01:32:40.957Z,12.40
2019-06-07T01:35:08.610Z,12.40
2019-06-07T01:37:35.040Z,12.50
2019-06-07T01:40:01.961Z,12.50
2019-06-07T01:42:29.487Z,12.60
2019-06-07T01:44:56.610Z,12.50
2019-06-07T01:47:25.625Z,12.50
2019-06-07T01:49:51.546Z,12.50
2019-06-07T01:52:19.602Z,12.60
2019-06-07T01:54:57.860Z,12.60
2019-06-07T01:57:30.923Z,12.60
2019-06-07T01:59:42.976Z,12.60
2019-06-07T02:02:09.645Z,12.50
2019-06-07T02:04:36.250Z,12.40
2019-06-07T02:07:02.505Z,12.40
2019-06-07T02:09:31.691Z,12.40
2019-06-07T02:11:57.003Z,12.30
2019-06-07T02:14:25.750Z,12.30
2019-06-07T02:16:51.510Z,12.30
2019-06-07T02:19:17.742Z,12.20
2019-06-07T02:21:44.391Z,12.40
2019-06-07T02:24:11.026Z,12.40
2019-06-07T02:26:37.648Z,12.40
2019-06-07T02:29:04.027Z,12.40
2019-06-07T02:31:38.269Z,12.50
2019-06-07T02:33:58.816Z,12.50
2019-06-07T02:36:29.700Z,12.50
2019-06-07T02:38:53.701Z,12.50
2019-06-07T02:41:22.912Z,12.60
2019-06-07T02:43:48.403Z,12.70
2019-06-07T02:46:30.401Z,12.70
2019-06-07T02:48:52.314Z,12.80
2019-06-07T02:51:18.790Z,12.70
2019-06-07T02:53:45.422Z,12.60
2019-06-07T02:56:37.441Z,12.60
2019-06-07T02:58:42.004Z,12.50
2019-06-07T03:01:09.701Z,12.40
2019-06-07T03:03:39.918Z,12.40
2019-06-07T03:06:05.698Z,12.40
2019-06-07T03:08:35.529Z,12.30
2019-06-07T03:11:02.612Z,12.20
2019-06-07T03:13:34.907Z,12.20
2019-06-07T03:16:03.824Z,12.20
2019-06-07T03:18:48.786Z,12.10
2019-06-07T03:21:21.005Z,12.10
2019-06-07T03:23:47.265Z,12.10
2019-06-07T03:26:15.412Z,12.10
2019-06-07T03:28:41.893Z,12.10
2019-06-07T03:31:08.441Z,12.00
2019-06-07T03:33:41.497Z,12.00
2019-06-07T03:36:22.703Z,12.00
2019-06-07T03:38:34.389Z,12.10
2019-06-07T03:40:59.904Z,12.10
2019-06-07T03:43:27.335Z,12.10
2019-06-07T03:45:53.964Z,12.10
2019-06-07T03:48:20.206Z,12.10
2019-06-07T03:50:46.861Z,12.20
2019-06-07T03:53:13.090Z,12.30
2019-06-07T03:55:41.329Z,12.20
2019-06-07T04:00:39.048Z,12.00
2019-06-07T04:03:04.129Z,12.00
2019-06-07T04:05:32.781Z,12.00
2019-06-07T04:07:59.086Z,12.00
2019-06-07T04:10:44.868Z,11.90
2019-06-07T04:12:54.773Z,11.90
2019-06-07T04:15:21.005Z,11.90
2019-06-07T04:18:01.262Z,11.80
2019-06-07T04:20:15.536Z,11.80
2019-06-07T04:22:42.851Z,11.80
2019-06-07T04:25:11.511Z,11.90
2019-06-07T04:27:40.929Z,11.80
2019-06-07T04:30:08.839Z,11.90
2019-06-07T04:32:37.163Z,12.00
2019-06-07T04:35:05.249Z,12.00
2019-06-07T04:37:33.451Z,12.00
2019-06-07T04:40:00.789Z,12.00
2019-06-07T04:42:34.424Z,12.10
2019-06-07T04:44:58.376Z,12.10
2019-06-07T04:47:25.330Z,12.30
2019-06-07T04:49:52.090Z,12.30
2019-06-07T04:52:18.632Z,12.40
2019-06-07T04:54:45.920Z,12.50
2019-06-07T04:57:14.756Z,12.70
2019-06-07T05:00:11.026Z,12.70
2019-06-07T05:02:09.265Z,12.80
2019-06-07T05:04:37.139Z,12.80
2019-06-07T05:07:05.723Z,12.90
2019-06-07T05:09:32.621Z,13.00
2019-06-07T05:12:00.463Z,13.10
2019-06-07T05:14:28.348Z,13.30
2019-06-07T05:16:55.291Z,13.40
2019-06-07T05:19:21.875Z,13.50
2019-06-07T05:22:02.491Z,13.50
2019-06-07T05:24:16.397Z,14.10
2019-06-07T05:26:43.109Z,14.30
2019-06-07T05:29:09.701Z,14.70
2019-06-07T05:31:39.575Z,14.40
2019-06-07T05:34:04.675Z,14.30
2019-06-07T05:36:31.514Z,14.60
2019-06-07T05:38:58.698Z,14.40
2019-06-07T05:41:25.361Z,14.30
2019-06-07T05:44:11.564Z,14.50
2019-06-07T05:46:20.024Z,14.30
2019-06-07T05:48:46.528Z,14.20
2019-06-07T05:51:12.871Z,14.10
2019-06-07T05:53:40.803Z,13.90
2019-06-07T05:56:07.671Z,14.30
2019-06-07T05:58:35.163Z,14.60
2019-06-07T06:01:41.681Z,14.90
2019-06-07T06:03:30.069Z,15.70
2019-06-07T06:05:56.373Z,16.50
2019-06-07T06:08:23.433Z,17.00
2019-06-07T06:10:49.681Z,16.00
2019-06-07T06:13:16.234Z,15.30
2019-06-07T06:15:56.386Z,15.10
2019-06-07T06:18:10.647Z,16.00
2019-06-07T06:21:00.838Z,16.90
2019-06-07T06:23:05.665Z,17.20
2019-06-07T06:25:33.924Z,17.00
2019-06-07T06:28:11.752Z,17.50
2019-06-07T06:30:28.765Z,17.00
2019-06-07T06:32:58.408Z,16.80
2019-06-07T06:35:23.456Z,16.40
2019-06-07T06:37:53.174Z,16.10
2019-06-07T06:40:19.994Z,17.20
2019-06-07T06:42:49.059Z,17.80
2019-06-07T06:45:15.026Z,18.20
2019-06-07T06:47:43.139Z,19.10
2019-06-07T06:50:11.108Z,19.70
2019-06-07T06:52:39.930Z,19.20
2019-06-07T06:55:07.683Z,19.00
2019-06-07T06:57:33.913Z,19.20
2019-06-07T07:00:00.141Z,19.70
2019-06-07T07:02:26.508Z,19.30
2019-06-07T07:04:54.094Z,19.80
2019-06-07T07:07:21.632Z,19.30
2019-06-07T07:09:53.918Z,19.50
2019-06-07T07:12:16.278Z,19.90
2019-06-07T07:14:45.585Z,19.90
2019-06-07T07:17:10.506Z,21.10
2019-06-07T07:19:36.789Z,20.80
2019-06-07T07:22:03.142Z,19.40
2019-06-07T07:24:29.416Z,19.00
2019-06-07T07:26:58.306Z,19.90
2019-06-07T07:29:23.732Z,19.30
2019-06-07T07:31:52.345Z,19.20
2019-06-07T07:34:33.554Z,19.20
2019-06-07T07:36:48.286Z,19.70
2019-06-07T07:39:14.140Z,19.60
2019-06-07T07:41:40.381Z,19.50
2019-06-07T07:44:07.932Z,19.30
2019-06-07T07:46:35.513Z,19.50
2019-06-07T07:49:01.994Z,19.70
2019-06-07T07:51:28.205Z,19.60
2019-06-07T07:54:09.071Z,19.10
2019-06-07T07:56:22.368Z,18.60
2019-06-07T07:58:53.694Z,18.30
2019-06-07T08:01:16.612Z,18.10
2019-06-07T08:03:42.855Z,18.00
2019-06-07T08:06:09.060Z,18.20
2019-06-07T08:08:35.316Z,18.70
2019-06-07T08:11:02.501Z,19.00
2019-06-07T08:13:28.876Z,18.80
2019-06-07T08:15:59.258Z,20.00
2019-06-07T08:18:23.135Z,19.00
2019-06-07T08:21:09.759Z,20.00
2019-06-07T08:23:17.408Z,21.80
2019-06-07T08:25:43.636Z,21.60
2019-06-07T08:28:09.849Z,22.10
2019-06-07T08:31:00.080Z,22.10
2019-06-07T08:33:24.847Z,23.20
2019-06-07T08:38:23.078Z,24.40
2019-06-07T08:40:29.616Z,23.80
2019-06-07T08:43:19.322Z,25.00
2019-06-07T08:45:24.752Z,25.50
2019-06-07T08:47:57.169Z,24.50
2019-06-07T08:50:20.603Z,23.40
2019-06-07T08:52:47.078Z,23.70
2019-06-07T08:55:13.493Z,23.70
2019-06-07T08:57:39.715Z,23.60
2019-06-07T09:00:41.850Z,24.40
2019-06-07T09:02:35.177Z,25.30
2019-06-07T09:05:10.943Z,26.10
2019-06-07T09:07:29.342Z,27.10
2019-06-07T09:10:03.453Z,26.70
2019-06-07T09:12:23.609Z,27.30
2019-06-07T09:15:06.318Z,27.00
2019-06-07T09:17:18.355Z,27.60
2019-06-07T09:19:44.608Z,27.20
2019-06-07T09:22:11.517Z,26.80
2019-06-07T09:24:38.170Z,27.20
2019-06-07T09:27:07.646Z,26.70
2019-06-07T09:29:32.574Z,26.20
2019-06-07T09:32:00.624Z,27.30
2019-06-07T09:34:27.001Z,27.30
2019-06-07T09:36:53.396Z,28.20
2019-06-07T09:39:19.732Z,28.60
2019-06-07T09:41:50.122Z,28.60
2019-06-07T09:44:24.054Z,29.20
2019-06-07T09:47:22.418Z,29.40
2019-06-07T09:49:32.981Z,28.30
2019-06-07T09:52:00.512Z,27.80
2019-06-07T09:55:03.755Z,29.10
2019-06-07T09:56:54.151Z,28.70
2019-06-07T09:59:21.418Z,29.10
2019-06-07T10:01:47.694Z,28.70
2019-06-07T10:04:28.450Z,27.70
2019-06-07T10:06:41.984Z,28.30
2019-06-07T10:11:38.780Z,27.00
2019-06-07T10:14:04.983Z,26.50
2019-06-07T10:16:45.779Z,26.20
2019-06-07T10:18:59.445Z,26.30
2019-06-07T10:21:25.676Z,26.40
2019-06-07T10:23:51.898Z,27.00
2019-06-07T10:26:18.137Z,27.20
2019-06-07T10:28:44.366Z,27.40
2019-06-07T10:31:11.411Z,27.40
2019-06-07T10:33:38.036Z,27.00
2019-06-07T10:36:04.487Z,26.60
2019-06-07T10:38:30.897Z,26.80
2019-06-07T10:40:57.151Z,27.30
2019-06-07T10:43:23.415Z,26.60
2019-06-07T10:45:49.658Z,27.00
2019-06-07T10:48:15.924Z,27.20
2019-06-07T10:50:42.212Z,26.40
2019-06-07T10:53:08.485Z,26.30
2019-06-07T10:55:34.746Z,26.40
2019-06-07T10:58:01.060Z,26.10
2019-06-07T11:00:28.026Z,25.50
2019-06-07T11:02:55.259Z,25.30
2019-06-07T11:05:21.933Z,24.80
2019-06-07T11:07:48.186Z,24.00
2019-06-07T11:10:19.087Z,24.20
2019-06-07T11:12:43.061Z,24.30
2019-06-07T11:15:11.080Z,23.90
2019-06-07T11:17:37.655Z,23.50
2019-06-07T11:20:08.391Z,23.20
2019-06-07T11:22:35.004Z,22.80
2019-06-07T11:25:01.354Z,22.60
2019-06-07T11:27:27.738Z,22.30
2019-06-07T11:29:54.021Z,22.20
2019-06-07T11:32:20.275Z,22.10
2019-06-07T11:34:46.533Z,21.90
2019-06-07T11:37:13.810Z,21.90
2019-06-07T11:39:40.825Z,22.10
2019-06-07T11:42:07.947Z,22.50
2019-06-07T11:44:34.269Z,22.80
2019-06-07T11:47:00.519Z,22.70
2019-06-07T11:49:26.780Z,22.60
2019-06-07T11:51:53.028Z,22.60
2019-06-07T11:54:20.611Z,22.60
2019-06-07T11:56:47.468Z,22.70
2019-06-07T11:59:13.749Z,22.90
2019-06-07T12:01:39.988Z,22.70
2019-06-07T12:04:07.346Z,22.50
2019-06-07T12:06:33.987Z,22.30
2019-06-07T12:09:00.226Z,22.00
2019-06-07T12:11:26.506Z,21.80
2019-06-07T12:13:52.741Z,21.60
2019-06-07T12:16:19.388Z,21.40
2019-06-07T12:18:45.975Z,21.20
2019-06-07T12:21:13.550Z,21.20
2019-06-07T12:23:40.013Z,21.00
2019-06-07T12:26:06.292Z,20.90
2019-06-07T12:28:33.560Z,20.50
2019-06-07T12:31:00.863Z,20.20
2019-06-07T12:33:27.147Z,20.40
2019-06-07T12:35:53.589Z,21.30
2019-06-07T12:38:21.041Z,21.50
2019-06-07T12:40:57.213Z,21.00
2019-06-07T12:43:16.720Z,20.80
2019-06-07T12:45:45.423Z,20.70
2019-06-07T12:48:11.176Z,20.50
2019-06-07T12:50:43.250Z,20.20
2019-06-07T12:53:05.594Z,19.80
2019-06-07T12:55:31.938Z,19.70
2019-06-07T12:57:58.208Z,19.60
2019-06-07T13:00:24.656Z,19.60
2019-06-07T13:02:50.991Z,19.50
2019-06-07T13:05:17.937Z,19.30
2019-06-07T13:07:44.552Z,19.20
2019-06-07T13:10:11.106Z,18.90
2019-06-07T13:12:37.450Z,18.70
2019-06-07T13:15:05.636Z,18.60
2019-06-07T13:17:31.872Z,18.30
2019-06-07T13:19:58.117Z,18.10
2019-06-07T13:22:24.507Z,17.80
2019-06-07T13:24:50.731Z,17.80
2019-06-07T13:27:18.193Z,17.70
2019-06-07T13:29:44.685Z,17.60
2019-06-07T13:32:11.085Z,17.40
2019-06-07T13:34:37.332Z,17.30
2019-06-07T13:37:03.681Z,17.30
2019-06-07T13:39:30.011Z,17.30
2019-06-07T13:41:56.287Z,17.30
2019-06-07T13:44:22.947Z,17.40
2019-06-07T13:46:49.236Z,17.40
2019-06-07T13:49:17.212Z,17.40
2019-06-07T13:51:44.005Z,17.30
2019-06-07T13:54:10.284Z,17.40
2019-06-07T13:56:37.686Z,17.30
2019-06-07T13:59:03.946Z,17.20
2019-06-07T14:01:30.217Z,17.20
2019-06-07T14:03:56.465Z,17.10
2019-06-07T14:06:23.435Z,16.90
2019-06-07T14:08:50.087Z,16.60
2019-06-07T14:11:16.357Z,16.50
2019-06-07T14:13:42.617Z,16.30
2019-06-07T14:16:08.881Z,16.10
2019-06-07T14:18:35.141Z,16.10
2019-06-07T14:21:01.363Z,16.10
2019-06-07T14:23:42.463Z,16.10
2019-06-07T14:25:55.908Z,16.00
2019-06-07T14:28:26.303Z,16.00
2019-06-07T14:30:50.247Z,16.00
2019-06-07T14:33:16.528Z,16.00
2019-06-07T14:35:42.791Z,16.00
2019-06-07T14:38:09.034Z,16.00
2019-06-07T14:40:35.590Z,15.90
2019-06-07T14:43:01.846Z,15.70
2019-06-07T14:45:28.067Z,15.60
2019-06-07T14:47:54.323Z,15.60
2019-06-07T14:50:20.676Z,15.60
2019-06-07T14:52:46.943Z,15.80
2019-06-07T14:55:13.833Z,15.90
2019-06-07T14:57:40.083Z,15.90
2019-06-07T15:00:11.849Z,15.70
2019-06-07T15:02:39.853Z,15.60
2019-06-07T15:05:07.463Z,15.60
2019-06-07T15:07:34.865Z,15.70
2019-06-07T15:10:02.016Z,15.90
2019-06-07T15:12:29.333Z,16.00
2019-06-07T15:14:55.832Z,16.10
2019-06-07T15:17:22.164Z,16.30
2019-06-07T15:19:48.401Z,16.40
2019-06-07T15:22:14.668Z,16.40
2019-06-07T15:24:41.020Z,16.50
2019-06-07T15:27:07.295Z,16.50
2019-06-07T15:29:33.840Z,16.40
2019-06-07T15:32:00.409Z,16.40
2019-06-07T15:34:28.850Z,16.40
2019-06-07T15:36:54.679Z,16.50
2019-06-07T15:39:20.956Z,16.50
2019-06-07T15:41:47.199Z,16.70
2019-06-07T15:44:13.594Z,16.90
2019-06-07T15:46:40.293Z,16.90
2019-06-07T15:49:06.767Z,16.70
2019-06-07T15:51:34.363Z,16.70
2019-06-07T15:54:00.888Z,16.70
2019-06-07T15:56:27.131Z,16.80
2019-06-07T15:58:53.392Z,16.80
2019-06-07T16:01:19.677Z,16.90
2019-06-07T16:03:46.058Z,17.30
2019-06-07T16:06:12.509Z,17.60
2019-06-07T16:08:38.791Z,17.80
2019-06-07T16:11:05.056Z,17.70
2019-06-07T16:13:32.419Z,17.60
2019-06-07T16:15:58.928Z,17.70
2019-06-07T16:18:25.331Z,17.90
2019-06-07T16:20:51.520Z,18.00
2019-06-07T16:23:17.885Z,18.00
2019-06-07T16:25:44.430Z,17.90
2019-06-07T16:28:10.852Z,17.90
2019-06-07T16:30:38.404Z,17.80
2019-06-07T16:33:05.679Z,17.80
2019-06-07T16:35:33.333Z,17.70
2019-06-07T16:37:59.552Z,17.50
2019-06-07T16:40:25.896Z,17.30
2019-06-07T16:42:52.149Z,17.30
2019-06-07T16:45:19.190Z,17.20
2019-06-07T16:47:47.711Z,17.10
2019-06-07T16:50:13.695Z,17.20
2019-06-07T16:52:39.970Z,17.30
2019-06-07T16:55:08.713Z,17.30
2019-06-07T16:57:34.971Z,17.20
2019-06-07T17:00:01.310Z,17.10
2019-06-07T17:02:29.668Z,17.00
2019-06-07T17:04:55.868Z,16.90
2019-06-07T17:07:22.142Z,17.00
2019-06-07T17:09:49.468Z,17.00
2019-06-07T17:12:16.110Z,16.90
2019-06-07T17:14:42.481Z,17.00
2019-06-07T17:17:09.526Z,17.10
2019-06-07T17:19:35.809Z,17.10
2019-06-07T17:22:02.148Z,17.00
2019-06-07T17:24:30.329Z,16.90
2019-06-07T17:26:56.563Z,16.90
2019-06-07T17:29:22.809Z,16.80
2019-06-07T17:31:50.383Z,16.70
2019-06-07T17:34:16.718Z,16.80
2019-06-07T17:36:44.911Z,16.80
2019-06-07T17:39:11.243Z,16.70
2019-06-07T17:41:50.448Z,16.70
2019-06-07T17:44:05.706Z,16.70
2019-06-07T17:46:32.340Z,16.70
2019-06-07T17:48:58.575Z,16.60
2019-06-07T17:51:24.811Z,16.60
2019-06-07T17:53:52.066Z,16.70
2019-06-07T17:56:18.520Z,16.60
2019-06-07T17:58:46.416Z,16.60
2019-06-07T18:01:13.011Z,16.60
2019-06-07T18:03:39.238Z,16.60
2019-06-07T18:06:05.626Z,16.50
2019-06-07T18:08:33.965Z,16.70
2019-06-07T18:11:00.365Z,16.80
2019-06-07T18:13:26.720Z,16.80
2019-06-07T18:15:58.770Z,16.80
2019-06-07T18:18:21.124Z,17.00
2019-06-07T18:20:47.499Z,17.00
2019-06-07T18:23:14.084Z,17.10
2019-06-07T18:25:40.529Z,17.10
2019-06-07T18:28:07.051Z,16.90
2019-06-07T18:30:34.515Z,16.80
2019-06-07T18:33:01.115Z,16.80
2019-06-07T18:35:27.612Z,16.70
2019-06-07T18:37:55.167Z,16.70
2019-06-07T18:40:21.835Z,16.60
2019-06-07T18:42:49.111Z,16.60
2019-06-07T18:45:15.913Z,16.50
2019-06-07T18:47:42.159Z,16.40
2019-06-07T18:50:10.163Z,16.40
2019-06-07T18:52:38.533Z,16.40
2019-06-07T18:55:09.100Z,16.30
2019-06-07T18:57:35.549Z,16.30
2019-06-07T19:00:06.494Z,16.20
2019-06-07T19:02:32.903Z,16.10
2019-06-07T19:04:59.588Z,16.00
2019-06-07T19:07:25.845Z,16.00
2019-06-07T19:09:52.632Z,16.00
2019-06-07T19:12:19.071Z,15.90
2019-06-07T19:14:45.416Z,15.80
2019-06-07T19:17:11.724Z,15.80
2019-06-07T19:19:37.959Z,15.80
2019-06-07T19:22:04.247Z,15.90
2019-06-07T19:24:30.574Z,15.90
2019-06-07T19:26:56.831Z,15.90
2019-06-07T19:29:23.508Z,15.80
2019-06-07T19:31:50.748Z,15.70
2019-06-07T19:34:17.225Z,15.50
2019-06-07T19:36:48.637Z,15.50
2019-06-07T19:39:11.659Z,15.40
2019-06-07T19:41:38.135Z,15.30
2019-06-07T19:44:04.371Z,15.20
2019-06-07T19:46:32.151Z,15.00
2019-06-07T19:48:58.731Z,14.90
2019-06-07T19:51:24.991Z,14.90
2019-06-07T19:53:52.859Z,14.70
2019-06-07T19:56:19.760Z,14.60
2019-06-07T19:58:46.031Z,14.60
2019-06-07T20:01:12.262Z,14.60
2019-06-07T20:03:38.903Z,14.70
2019-06-07T20:06:05.294Z,14.70
2019-06-07T20:08:31.743Z,14.70
2019-06-07T20:10:58.500Z,14.70
2019-06-07T20:13:25.122Z,14.70
2019-06-07T20:15:51.695Z,14.70
2019-06-07T20:18:17.919Z,14.70
2019-06-07T20:20:45.241Z,14.70
2019-06-07T20:23:11.524Z,14.60
2019-06-07T20:25:37.927Z,14.50
2019-06-07T20:28:05.597Z,14.30
2019-06-07T20:30:32.342Z,14.30
2019-06-07T20:32:59.800Z,14.40
2019-06-07T20:35:26.225Z,14.30
2019-06-07T20:37:52.668Z,14.40
2019-06-07T20:40:24.360Z,14.40
2019-06-07T20:42:47.378Z,14.40
2019-06-07T20:45:14.383Z,14.40
2019-06-07T20:47:40.856Z,14.50
2019-06-07T20:50:08.678Z,14.50
2019-06-07T20:52:35.571Z,14.50
2019-06-07T20:55:03.125Z,14.50
2019-06-07T20:57:29.826Z,14.60
2019-06-07T20:59:56.092Z,14.60
2019-06-07T21:02:22.693Z,14.50
2019-06-07T21:04:50.913Z,14.50
2019-06-07T21:07:17.650Z,14.50
2019-06-07T21:09:44.260Z,14.50
2019-06-07T21:12:11.023Z,14.60
2019-06-07T21:14:37.374Z,14.60
2019-06-07T21:17:04.183Z,14.60
2019-06-07T21:19:30.874Z,14.50
2019-06-07T21:21:57.072Z,14.50
2019-06-07T21:24:23.735Z,14.50
2019-06-07T21:26:53.154Z,14.50
2019-06-07T21:29:18.178Z,14.40
2019-06-07T21:31:44.847Z,14.40
2019-06-07T21:34:14.012Z,14.40
2019-06-07T21:36:39.351Z,14.30
2019-06-07T21:39:06.427Z,14.30
2019-06-07T21:41:32.720Z,14.30
2019-06-07T21:43:58.957Z,14.30
2019-06-07T21:46:25.328Z,14.30
2019-06-07T21:48:51.602Z,14.30
2019-06-07T21:51:18.136Z,14.20
2019-06-07T21:53:44.627Z,14.10
2019-06-07T21:56:11.285Z,14.10
2019-06-07T21:58:37.842Z,14.20
2019-06-07T22:01:12.057Z,14.20
2019-06-07T22:03:38.478Z,14.20
2019-06-07T22:06:05.643Z,14.20
2019-06-07T22:08:32.686Z,14.20
2019-06-07T22:10:59.268Z,14.30
2019-06-07T22:13:25.588Z,14.30
2019-06-07T22:15:52.158Z,14.30
2019-06-07T22:18:18.428Z,14.10
2019-06-07T22:20:44.638Z,14.10
2019-06-07T22:23:10.998Z,14.10
2019-06-07T22:25:37.339Z,14.20
2019-06-07T22:28:03.783Z,14.30
2019-06-07T22:30:30.128Z,14.40
2019-06-07T22:32:56.431Z,14.40
2019-06-07T22:35:22.803Z,14.40
2019-06-07T22:37:49.389Z,14.50
2019-06-07T22:40:16.242Z,14.50
2019-06-07T22:42:42.665Z,14.60
2019-06-07T22:45:10.940Z,14.60
2019-06-07T22:47:37.580Z,14.60
2019-06-07T22:50:10.664Z,14.60
2019-06-07T22:52:37.941Z,14.50
2019-06-07T22:55:05.485Z,14.50
2019-06-07T22:57:36.378Z,14.50
2019-06-07T23:00:10.205Z,14.50
2019-06-07T23:02:33.084Z,14.60
2019-06-07T23:04:59.311Z,14.60
2019-06-07T23:07:25.887Z,14.60
2019-06-07T23:09:52.470Z,14.60
2019-06-07T23:12:19.553Z,14.60
2019-06-07T23:14:46.200Z,14.70
2019-06-07T23:17:13.872Z,14.70
2019-06-07T23:19:40.704Z,14.70
2019-06-07T23:22:07.331Z,14.70
2019-06-07T23:24:33.970Z,14.70
2019-06-07T23:27:00.598Z,14.70
2019-06-07T23:29:27.247Z,14.80
2019-06-07T23:31:53.878Z,14.80
2019-06-07T23:34:21.020Z,14.80
2019-06-07T23:36:47.518Z,14.80
2019-06-07T23:39:15.282Z,14.90
2019-06-07T23:41:41.674Z,14.80
2019-06-07T23:44:08.288Z,14.80
2019-06-07T23:46:34.959Z,14.80
2019-06-07T23:49:01.212Z,14.90
2019-06-07T23:51:27.466Z,14.80
2019-06-07T23:53:54.031Z,14.90
2019-06-07T23:56:20.555Z,14.80
2019-06-07T23:58:47.332Z,14.80
